sensor_id;sensor_type;location;lat;lon;timestamp;temperature;humidity
79018;DHT22;69817;44.694;37.774;2023-05-07T00:00:57;27.53;45.80
79018;DHT22;69817;44.694;37.774;2023-05-07T00:02:01;27.54;45.80
79018;DHT22;69817;44.694;37.774;2023-05-07T00:03:05;27.53;45.81
79018;DHT22;69817;44.694;37.774;2023-05-07T00:04:08;27.52;45.76
79018;DHT22;69817;44.694;37.774;2023-05-07T00:05:09;27.51;45.88
79018;DHT22;69817;44.694;37.774;2023-05-07T00:06:11;27.50;45.86
79018;DHT22;69817;44.694;37.774;2023-05-07T00:07:14;27.50;45.66
79018;DHT22;69817;44.694;37.774;2023-05-07T00:08:16;27.51;45.90
79018;DHT22;69817;44.694;37.774;2023-05-07T00:09:18;27.52;46.39
79018;DHT22;69817;44.694;37.774;2023-05-07T00:10:20;27.52;46.83
79018;DHT22;69817;44.694;37.774;2023-05-07T00:11:22;27.56;47.43
79018;DHT22;69817;44.694;37.774;2023-05-07T00:12:24;27.57;46.38
79018;DHT22;69817;44.694;37.774;2023-05-07T00:13:26;27.56;46.96
79018;DHT22;69817;44.694;37.774;2023-05-07T00:14:28;27.58;46.54
79018;DHT22;69817;44.694;37.774;2023-05-07T00:15:30;27.56;46.32
79018;DHT22;69817;44.694;37.774;2023-05-07T00:16:32;27.56;46.57
79018;DHT22;69817;44.694;37.774;2023-05-07T00:17:34;27.56;46.42
79018;DHT22;69817;44.694;37.774;2023-05-07T00:18:36;27.56;46.44
79018;DHT22;69817;44.694;37.774;2023-05-07T00:19:38;27.57;47.08
79018;DHT22;69817;44.694;37.774;2023-05-07T00:20:40;27.57;47.04
79018;DHT22;69817;44.694;37.774;2023-05-07T00:21:42;27.59;48.35
79018;DHT22;69817;44.694;37.774;2023-05-07T00:22:44;27.61;47.92
79018;DHT22;69817;44.694;37.774;2023-05-07T00:23:46;27.64;47.92
79018;DHT22;69817;44.694;37.774;2023-05-07T00:24:48;27.64;47.93
79018;DHT22;69817;44.694;37.774;2023-05-07T00:25:50;27.64;48.05
79018;DHT22;69817;44.694;37.774;2023-05-07T00:26:52;27.64;48.05
79018;DHT22;69817;44.694;37.774;2023-05-07T00:27:54;27.65;48.05
79018;DHT22;69817;44.694;37.774;2023-05-07T00:28:56;27.66;48.21
79018;DHT22;69817;44.694;37.774;2023-05-07T00:29:58;27.66;48.29
79018;DHT22;69817;44.694;37.774;2023-05-07T00:31:00;27.66;48.33
79018;DHT22;69817;44.694;37.774;2023-05-07T00:32:02;27.67;48.37
79018;DHT22;69817;44.694;37.774;2023-05-07T00:33:04;27.68;48.37
79018;DHT22;69817;44.694;37.774;2023-05-07T00:34:06;27.68;48.37
79018;DHT22;69817;44.694;37.774;2023-05-07T00:35:08;27.68;48.41
79018;DHT22;69817;44.694;37.774;2023-05-07T00:36:10;27.69;48.27
79018;DHT22;69817;44.694;37.774;2023-05-07T00:37:12;27.70;48.35
79018;DHT22;69817;44.694;37.774;2023-05-07T00:38:14;27.70;48.32
79018;DHT22;69817;44.694;37.774;2023-05-07T00:39:16;27.70;48.58
79018;DHT22;69817;44.694;37.774;2023-05-07T00:40:18;27.71;48.66
79018;DHT22;69817;44.694;37.774;2023-05-07T00:41:20;27.71;48.54
79018;DHT22;69817;44.694;37.774;2023-05-07T00:42:22;27.71;48.68
79018;DHT22;69817;44.694;37.774;2023-05-07T00:43:24;27.71;48.68
79018;DHT22;69817;44.694;37.774;2023-05-07T00:44:26;27.73;48.51
79018;DHT22;69817;44.694;37.774;2023-05-07T00:45:28;27.74;48.68
79018;DHT22;69817;44.694;37.774;2023-05-07T00:46:32;27.74;48.65
79018;DHT22;69817;44.694;37.774;2023-05-07T00:47:34;27.74;48.77
79018;DHT22;69817;44.694;37.774;2023-05-07T00:48:36;27.74;48.76
79018;DHT22;69817;44.694;37.774;2023-05-07T00:49:39;27.75;48.75
79018;DHT22;69817;44.694;37.774;2023-05-07T00:50:43;27.75;48.74
79018;DHT22;69817;44.694;37.774;2023-05-07T00:51:45;27.75;48.79
79018;DHT22;69817;44.694;37.774;2023-05-07T00:52:47;27.76;48.83
79018;DHT22;69817;44.694;37.774;2023-05-07T00:53:49;27.76;48.80
79018;DHT22;69817;44.694;37.774;2023-05-07T00:54:51;27.79;48.76
79018;DHT22;69817;44.694;37.774;2023-05-07T00:55:54;27.79;48.80
79018;DHT22;69817;44.694;37.774;2023-05-07T00:57:02;27.79;48.79
79018;DHT22;69817;44.694;37.774;2023-05-07T00:58:05;27.79;48.91
79018;DHT22;69817;44.694;37.774;2023-05-07T00:59:08;27.79;49.01
79018;DHT22;69817;44.694;37.774;2023-05-07T01:00:10;27.76;49.02
79018;DHT22;69817;44.694;37.774;2023-05-07T01:01:15;27.79;48.86
79018;DHT22;69817;44.694;37.774;2023-05-07T01:02:19;27.79;48.92
79018;DHT22;69817;44.694;37.774;2023-05-07T01:03:21;27.76;48.97
79018;DHT22;69817;44.694;37.774;2023-05-07T01:04:23;27.79;48.84
79018;DHT22;69817;44.694;37.774;2023-05-07T01:05:25;27.75;48.97
79018;DHT22;69817;44.694;37.774;2023-05-07T01:06:29;27.78;48.89
79018;DHT22;69817;44.694;37.774;2023-05-07T01:07:34;27.76;48.90
79018;DHT22;69817;44.694;37.774;2023-05-07T01:08:37;27.76;49.11
79018;DHT22;69817;44.694;37.774;2023-05-07T01:09:41;27.79;49.16
79018;DHT22;69817;44.694;37.774;2023-05-07T01:10:43;27.78;48.95
79018;DHT22;69817;44.694;37.774;2023-05-07T01:11:47;27.78;48.99
79018;DHT22;69817;44.694;37.774;2023-05-07T01:12:51;27.80;49.21
79018;DHT22;69817;44.694;37.774;2023-05-07T01:13:54;27.79;48.99
79018;DHT22;69817;44.694;37.774;2023-05-07T01:14:57;27.79;49.21
79018;DHT22;69817;44.694;37.774;2023-05-07T01:15:59;27.80;49.44
79018;DHT22;69817;44.694;37.774;2023-05-07T01:17:01;27.80;49.02
79018;DHT22;69817;44.694;37.774;2023-05-07T01:18:03;27.79;49.11
79018;DHT22;69817;44.694;37.774;2023-05-07T01:19:09;27.79;49.30
79018;DHT22;69817;44.694;37.774;2023-05-07T01:20:14;27.80;49.24
79018;DHT22;69817;44.694;37.774;2023-05-07T01:21:25;27.79;49.24
79018;DHT22;69817;44.694;37.774;2023-05-07T01:22:33;27.79;49.15
79018;DHT22;69817;44.694;37.774;2023-05-07T01:23:35;27.81;49.38
79018;DHT22;69817;44.694;37.774;2023-05-07T01:24:37;27.79;49.23
79018;DHT22;69817;44.694;37.774;2023-05-07T01:25:40;27.79;49.13
79018;DHT22;69817;44.694;37.774;2023-05-07T01:26:43;27.75;49.28
79018;DHT22;69817;44.694;37.774;2023-05-07T01:27:48;27.75;49.37
79018;DHT22;69817;44.694;37.774;2023-05-07T01:28:50;27.76;49.27
79018;DHT22;69817;44.694;37.774;2023-05-07T01:29:52;27.76;49.44
79018;DHT22;69817;44.694;37.774;2023-05-07T01:30:58;27.76;49.18
79018;DHT22;69817;44.694;37.774;2023-05-07T01:32:03;27.75;49.56
79018;DHT22;69817;44.694;37.774;2023-05-07T01:33:11;27.76;49.69
79018;DHT22;69817;44.694;37.774;2023-05-07T01:34:17;27.76;49.21
79018;DHT22;69817;44.694;37.774;2023-05-07T01:35:24;27.75;49.59
79018;DHT22;69817;44.694;37.774;2023-05-07T01:36:27;27.75;49.44
79018;DHT22;69817;44.694;37.774;2023-05-07T01:37:32;27.75;49.40
79018;DHT22;69817;44.694;37.774;2023-05-07T01:38:36;27.76;49.51
79018;DHT22;69817;44.694;37.774;2023-05-07T01:39:39;27.74;49.65
79018;DHT22;69817;44.694;37.774;2023-05-07T01:40:41;27.76;49.69
79018;DHT22;69817;44.694;37.774;2023-05-07T01:41:44;27.74;49.51
79018;DHT22;69817;44.694;37.774;2023-05-07T01:42:47;27.76;49.62
79018;DHT22;69817;44.694;37.774;2023-05-07T01:43:50;27.79;49.49
79018;DHT22;69817;44.694;37.774;2023-05-07T01:44:53;27.78;49.53
79018;DHT22;69817;44.694;37.774;2023-05-07T01:45:55;27.78;49.50
79018;DHT22;69817;44.694;37.774;2023-05-07T01:46:58;27.79;49.73
79018;DHT22;69817;44.694;37.774;2023-05-07T01:48:02;27.78;49.45
79018;DHT22;69817;44.694;37.774;2023-05-07T01:49:04;27.78;49.73
79018;DHT22;69817;44.694;37.774;2023-05-07T01:50:07;27.78;49.63
79018;DHT22;69817;44.694;37.774;2023-05-07T01:51:09;27.78;49.41
79018;DHT22;69817;44.694;37.774;2023-05-07T01:52:11;27.76;49.64
79018;DHT22;69817;44.694;37.774;2023-05-07T01:53:13;27.75;49.76
79018;DHT22;69817;44.694;37.774;2023-05-07T01:54:15;27.76;49.59
79018;DHT22;69817;44.694;37.774;2023-05-07T01:55:18;27.78;49.68
79018;DHT22;69817;44.694;37.774;2023-05-07T01:56:20;27.78;49.75
79018;DHT22;69817;44.694;37.774;2023-05-07T01:57:22;27.78;49.83
79018;DHT22;69817;44.694;37.774;2023-05-07T01:58:24;27.76;50.07
79018;DHT22;69817;44.694;37.774;2023-05-07T01:59:26;27.76;49.85
79018;DHT22;69817;44.694;37.774;2023-05-07T02:00:29;27.76;50.18
79018;DHT22;69817;44.694;37.774;2023-05-07T02:01:32;27.78;50.27
79018;DHT22;69817;44.694;37.774;2023-05-07T02:02:34;27.78;49.71
79018;DHT22;69817;44.694;37.774;2023-05-07T02:03:36;27.79;49.83
79018;DHT22;69817;44.694;37.774;2023-05-07T02:04:45;27.79;50.06
79018;DHT22;69817;44.694;37.774;2023-05-07T02:05:48;27.79;49.98
79018;DHT22;69817;44.694;37.774;2023-05-07T02:07:07;27.80;49.98
79018;DHT22;69817;44.694;37.774;2023-05-07T02:08:09;27.80;50.06
79018;DHT22;69817;44.694;37.774;2023-05-07T02:09:11;27.81;49.81
79018;DHT22;69817;44.694;37.774;2023-05-07T02:10:16;27.82;49.99
79018;DHT22;69817;44.694;37.774;2023-05-07T02:11:18;27.80;50.06
79018;DHT22;69817;44.694;37.774;2023-05-07T02:12:20;27.80;50.07
79018;DHT22;69817;44.694;37.774;2023-05-07T02:13:22;27.82;50.16
79018;DHT22;69817;44.694;37.774;2023-05-07T02:14:26;27.82;49.97
79018;DHT22;69817;44.694;37.774;2023-05-07T02:15:27;27.82;50.08
79018;DHT22;69817;44.694;37.774;2023-05-07T02:16:30;27.82;50.07
79018;DHT22;69817;44.694;37.774;2023-05-07T02:17:32;27.82;50.05
79018;DHT22;69817;44.694;37.774;2023-05-07T02:18:34;27.81;49.98
79018;DHT22;69817;44.694;37.774;2023-05-07T02:19:37;27.80;50.11
79018;DHT22;69817;44.694;37.774;2023-05-07T02:20:39;27.81;50.08
79018;DHT22;69817;44.694;37.774;2023-05-07T02:21:41;27.81;50.13
79018;DHT22;69817;44.694;37.774;2023-05-07T02:22:43;27.80;50.11
79018;DHT22;69817;44.694;37.774;2023-05-07T02:23:45;27.82;50.05
79018;DHT22;69817;44.694;37.774;2023-05-07T02:24:47;27.82;50.06
79018;DHT22;69817;44.694;37.774;2023-05-07T02:25:49;27.83;50.15
79018;DHT22;69817;44.694;37.774;2023-05-07T02:26:51;27.83;49.93
79018;DHT22;69817;44.694;37.774;2023-05-07T02:27:52;27.83;50.07
79018;DHT22;69817;44.694;37.774;2023-05-07T02:28:57;27.83;50.34
79018;DHT22;69817;44.694;37.774;2023-05-07T02:30:01;27.82;49.95
79018;DHT22;69817;44.694;37.774;2023-05-07T02:31:03;27.84;50.21
79018;DHT22;69817;44.694;37.774;2023-05-07T02:32:06;27.83;49.97
79018;DHT22;69817;44.694;37.774;2023-05-07T02:33:08;27.84;50.27
79018;DHT22;69817;44.694;37.774;2023-05-07T02:34:10;27.83;50.19
79018;DHT22;69817;44.694;37.774;2023-05-07T02:35:12;27.81;50.14
79018;DHT22;69817;44.694;37.774;2023-05-07T02:36:14;27.83;50.26
79018;DHT22;69817;44.694;37.774;2023-05-07T02:37:25;27.82;50.19
79018;DHT22;69817;44.694;37.774;2023-05-07T02:38:27;27.82;49.91
79018;DHT22;69817;44.694;37.774;2023-05-07T02:39:29;27.82;49.94
79018;DHT22;69817;44.694;37.774;2023-05-07T02:40:32;27.82;50.14
79018;DHT22;69817;44.694;37.774;2023-05-07T02:41:35;27.80;50.14
79018;DHT22;69817;44.694;37.774;2023-05-07T02:42:37;27.81;49.98
79018;DHT22;69817;44.694;37.774;2023-05-07T02:43:39;27.82;50.12
79018;DHT22;69817;44.694;37.774;2023-05-07T02:44:41;27.82;50.01
79018;DHT22;69817;44.694;37.774;2023-05-07T02:45:42;27.82;50.32
79018;DHT22;69817;44.694;37.774;2023-05-07T02:46:45;27.83;50.24
79018;DHT22;69817;44.694;37.774;2023-05-07T02:47:48;27.83;50.11
79018;DHT22;69817;44.694;37.774;2023-05-07T02:48:50;27.82;50.20
79018;DHT22;69817;44.694;37.774;2023-05-07T02:49:52;27.82;50.13
79018;DHT22;69817;44.694;37.774;2023-05-07T02:50:55;27.84;50.21
79018;DHT22;69817;44.694;37.774;2023-05-07T02:51:57;27.84;50.27
79018;DHT22;69817;44.694;37.774;2023-05-07T02:52:59;27.82;50.09
79018;DHT22;69817;44.694;37.774;2023-05-07T02:54:01;27.83;50.36
79018;DHT22;69817;44.694;37.774;2023-05-07T02:55:04;27.83;50.27
79018;DHT22;69817;44.694;37.774;2023-05-07T02:56:06;27.82;50.49
79018;DHT22;69817;44.694;37.774;2023-05-07T02:57:08;27.81;50.16
79018;DHT22;69817;44.694;37.774;2023-05-07T02:58:10;27.82;50.64
79018;DHT22;69817;44.694;37.774;2023-05-07T02:59:14;27.84;50.16
79018;DHT22;69817;44.694;37.774;2023-05-07T03:00:18;27.83;50.43
79018;DHT22;69817;44.694;37.774;2023-05-07T03:01:40;27.82;50.18
79018;DHT22;69817;44.694;37.774;2023-05-07T03:02:46;27.81;50.50
79018;DHT22;69817;44.694;37.774;2023-05-07T03:03:48;27.82;50.04
79018;DHT22;69817;44.694;37.774;2023-05-07T03:04:50;27.82;50.13
79018;DHT22;69817;44.694;37.774;2023-05-07T03:05:53;27.81;50.07
79018;DHT22;69817;44.694;37.774;2023-05-07T03:06:55;27.80;50.15
79018;DHT22;69817;44.694;37.774;2023-05-07T03:07:57;27.81;50.12
79018;DHT22;69817;44.694;37.774;2023-05-07T03:08:59;27.82;50.27
79018;DHT22;69817;44.694;37.774;2023-05-07T03:10:01;27.81;50.08
79018;DHT22;69817;44.694;37.774;2023-05-07T03:11:03;27.81;50.15
79018;DHT22;69817;44.694;37.774;2023-05-07T03:12:05;27.81;50.03
79018;DHT22;69817;44.694;37.774;2023-05-07T03:13:07;27.81;50.21
79018;DHT22;69817;44.694;37.774;2023-05-07T03:14:09;27.80;49.98
79018;DHT22;69817;44.694;37.774;2023-05-07T03:15:11;27.80;50.00
79018;DHT22;69817;44.694;37.774;2023-05-07T03:16:14;27.80;50.18
79018;DHT22;69817;44.694;37.774;2023-05-07T03:17:16;27.80;50.07
79018;DHT22;69817;44.694;37.774;2023-05-07T03:18:18;27.79;50.11
79018;DHT22;69817;44.694;37.774;2023-05-07T03:19:19;27.81;50.24
79018;DHT22;69817;44.694;37.774;2023-05-07T03:20:21;27.79;50.19
79018;DHT22;69817;44.694;37.774;2023-05-07T03:21:23;27.80;50.03
79018;DHT22;69817;44.694;37.774;2023-05-07T03:22:25;27.79;50.11
79018;DHT22;69817;44.694;37.774;2023-05-07T03:23:27;27.80;50.10
79018;DHT22;69817;44.694;37.774;2023-05-07T03:24:29;27.80;50.24
79018;DHT22;69817;44.694;37.774;2023-05-07T03:25:32;27.81;50.08
79018;DHT22;69817;44.694;37.774;2023-05-07T03:26:34;27.80;49.96
79018;DHT22;69817;44.694;37.774;2023-05-07T03:27:36;27.82;50.04
79018;DHT22;69817;44.694;37.774;2023-05-07T03:28:38;27.80;50.17
79018;DHT22;69817;44.694;37.774;2023-05-07T03:29:44;27.81;50.13
79018;DHT22;69817;44.694;37.774;2023-05-07T03:30:46;27.81;50.05
79018;DHT22;69817;44.694;37.774;2023-05-07T03:31:48;27.80;50.09
79018;DHT22;69817;44.694;37.774;2023-05-07T03:32:50;27.80;49.88
79018;DHT22;69817;44.694;37.774;2023-05-07T03:33:56;27.80;49.94
79018;DHT22;69817;44.694;37.774;2023-05-07T03:34:58;27.81;50.00
79018;DHT22;69817;44.694;37.774;2023-05-07T03:36:01;27.82;50.12
79018;DHT22;69817;44.694;37.774;2023-05-07T03:37:03;27.81;49.82
79018;DHT22;69817;44.694;37.774;2023-05-07T03:38:06;27.80;49.95
79018;DHT22;69817;44.694;37.774;2023-05-07T03:39:10;27.80;50.03
79018;DHT22;69817;44.694;37.774;2023-05-07T03:40:15;27.80;49.92
79018;DHT22;69817;44.694;37.774;2023-05-07T03:41:22;27.80;49.97
79018;DHT22;69817;44.694;37.774;2023-05-07T03:42:24;27.80;50.11
79018;DHT22;69817;44.694;37.774;2023-05-07T03:43:27;27.80;49.88
79018;DHT22;69817;44.694;37.774;2023-05-07T03:44:36;27.80;49.97
79018;DHT22;69817;44.694;37.774;2023-05-07T03:45:38;27.80;49.91
79018;DHT22;69817;44.694;37.774;2023-05-07T03:47:00;27.80;49.90
79018;DHT22;69817;44.694;37.774;2023-05-07T03:48:02;27.80;50.18
79018;DHT22;69817;44.694;37.774;2023-05-07T03:49:04;27.79;50.30
79018;DHT22;69817;44.694;37.774;2023-05-07T03:50:06;27.81;50.14
79018;DHT22;69817;44.694;37.774;2023-05-07T03:51:08;27.80;50.22
79018;DHT22;69817;44.694;37.774;2023-05-07T03:52:11;27.81;50.18
79018;DHT22;69817;44.694;37.774;2023-05-07T03:53:13;27.80;50.32
79018;DHT22;69817;44.694;37.774;2023-05-07T03:54:15;27.81;50.17
79018;DHT22;69817;44.694;37.774;2023-05-07T03:55:20;27.84;50.15
79018;DHT22;69817;44.694;37.774;2023-05-07T03:56:26;27.84;50.19
79018;DHT22;69817;44.694;37.774;2023-05-07T03:57:30;27.82;50.22
79018;DHT22;69817;44.694;37.774;2023-05-07T03:58:33;27.84;50.31
79018;DHT22;69817;44.694;37.774;2023-05-07T03:59:40;27.82;50.34
79018;DHT22;69817;44.694;37.774;2023-05-07T04:00:43;27.81;50.24
79018;DHT22;69817;44.694;37.774;2023-05-07T04:01:55;27.81;50.08
79018;DHT22;69817;44.694;37.774;2023-05-07T04:02:59;27.81;50.44
79018;DHT22;69817;44.694;37.774;2023-05-07T04:04:05;27.82;50.43
79018;DHT22;69817;44.694;37.774;2023-05-07T04:05:08;27.83;50.27
79018;DHT22;69817;44.694;37.774;2023-05-07T04:06:16;27.84;50.45
79018;DHT22;69817;44.694;37.774;2023-05-07T04:07:20;27.83;50.28
79018;DHT22;69817;44.694;37.774;2023-05-07T04:08:25;27.83;50.35
79018;DHT22;69817;44.694;37.774;2023-05-07T04:09:29;27.83;50.63
79018;DHT22;69817;44.694;37.774;2023-05-07T04:10:32;27.83;50.42
79018;DHT22;69817;44.694;37.774;2023-05-07T04:11:37;27.85;50.42
79018;DHT22;69817;44.694;37.774;2023-05-07T04:12:44;27.85;50.19
79018;DHT22;69817;44.694;37.774;2023-05-07T04:13:50;27.83;50.37
79018;DHT22;69817;44.694;37.774;2023-05-07T04:14:56;27.83;50.41
79018;DHT22;69817;44.694;37.774;2023-05-07T04:15:58;27.83;50.45
79018;DHT22;69817;44.694;37.774;2023-05-07T04:17:01;27.81;50.60
79018;DHT22;69817;44.694;37.774;2023-05-07T04:18:04;27.80;50.56
79018;DHT22;69817;44.694;37.774;2023-05-07T04:19:07;27.80;50.52
79018;DHT22;69817;44.694;37.774;2023-05-07T04:20:13;27.80;50.63
79018;DHT22;69817;44.694;37.774;2023-05-07T04:21:17;27.81;50.43
79018;DHT22;69817;44.694;37.774;2023-05-07T04:22:20;27.80;50.38
79018;DHT22;69817;44.694;37.774;2023-05-07T04:23:22;27.80;50.38
79018;DHT22;69817;44.694;37.774;2023-05-07T04:24:24;27.80;50.52
79018;DHT22;69817;44.694;37.774;2023-05-07T04:25:26;27.80;50.53
79018;DHT22;69817;44.694;37.774;2023-05-07T04:26:32;27.81;50.40
79018;DHT22;69817;44.694;37.774;2023-05-07T04:27:34;27.83;50.48
79018;DHT22;69817;44.694;37.774;2023-05-07T04:28:36;27.84;50.32
79018;DHT22;69817;44.694;37.774;2023-05-07T04:29:38;27.86;50.40
79018;DHT22;69817;44.694;37.774;2023-05-07T04:30:45;27.84;50.32
79018;DHT22;69817;44.694;37.774;2023-05-07T04:31:47;27.86;50.23
79018;DHT22;69817;44.694;37.774;2023-05-07T04:32:50;27.85;50.25
79018;DHT22;69817;44.694;37.774;2023-05-07T04:33:52;27.87;50.19
79018;DHT22;69817;44.694;37.774;2023-05-07T04:34:54;27.87;50.24
79018;DHT22;69817;44.694;37.774;2023-05-07T04:35:55;27.87;50.27
79018;DHT22;69817;44.694;37.774;2023-05-07T04:36:58;27.87;50.35
79018;DHT22;69817;44.694;37.774;2023-05-07T04:38:00;27.88;50.40
79018;DHT22;69817;44.694;37.774;2023-05-07T04:39:04;27.86;50.32
79018;DHT22;69817;44.694;37.774;2023-05-07T04:40:06;27.87;50.85
79018;DHT22;69817;44.694;37.774;2023-05-07T04:41:09;27.88;51.09
79018;DHT22;69817;44.694;37.774;2023-05-07T04:42:16;27.88;51.14
79018;DHT22;69817;44.694;37.774;2023-05-07T04:43:18;27.87;51.11
79018;DHT22;69817;44.694;37.774;2023-05-07T04:44:24;27.90;51.63
79018;DHT22;69817;44.694;37.774;2023-05-07T04:45:26;27.90;51.29
79018;DHT22;69817;44.694;37.774;2023-05-07T04:46:30;27.90;51.40
79018;DHT22;69817;44.694;37.774;2023-05-07T04:47:33;27.91;51.91
79018;DHT22;69817;44.694;37.774;2023-05-07T04:48:36;27.94;52.05
79018;DHT22;69817;44.694;37.774;2023-05-07T04:49:40;27.93;51.91
79018;DHT22;69817;44.694;37.774;2023-05-07T04:50:47;27.93;51.66
79018;DHT22;69817;44.694;37.774;2023-05-07T04:51:49;27.91;51.98
79018;DHT22;69817;44.694;37.774;2023-05-07T04:52:54;27.93;51.70
79018;DHT22;69817;44.694;37.774;2023-05-07T04:53:58;27.93;51.97
79018;DHT22;69817;44.694;37.774;2023-05-07T04:55:03;27.93;51.87
79018;DHT22;69817;44.694;37.774;2023-05-07T04:56:10;27.93;51.82
79018;DHT22;69817;44.694;37.774;2023-05-07T04:57:16;27.93;52.11
79018;DHT22;69817;44.694;37.774;2023-05-07T04:58:19;27.95;51.94
79018;DHT22;69817;44.694;37.774;2023-05-07T04:59:22;27.95;51.88
79018;DHT22;69817;44.694;37.774;2023-05-07T05:00:24;27.94;51.91
79018;DHT22;69817;44.694;37.774;2023-05-07T05:01:28;27.95;51.83
79018;DHT22;69817;44.694;37.774;2023-05-07T05:02:31;27.93;51.83
79018;DHT22;69817;44.694;37.774;2023-05-07T05:03:33;27.95;51.95
79018;DHT22;69817;44.694;37.774;2023-05-07T05:04:35;27.95;51.85
79018;DHT22;69817;44.694;37.774;2023-05-07T05:05:38;27.96;51.72
79018;DHT22;69817;44.694;37.774;2023-05-07T05:06:40;27.95;51.87
79018;DHT22;69817;44.694;37.774;2023-05-07T05:07:42;27.97;51.70
79018;DHT22;69817;44.694;37.774;2023-05-07T05:08:44;27.93;51.54
79018;DHT22;69817;44.694;37.774;2023-05-07T05:09:46;27.91;51.58
79018;DHT22;69817;44.694;37.774;2023-05-07T05:10:48;27.94;51.02
79018;DHT22;69817;44.694;37.774;2023-05-07T05:11:51;27.95;51.25
79018;DHT22;69817;44.694;37.774;2023-05-07T05:12:53;27.91;50.87
79018;DHT22;69817;44.694;37.774;2023-05-07T05:13:56;27.90;51.08
79018;DHT22;69817;44.694;37.774;2023-05-07T05:14:59;27.90;51.03
79018;DHT22;69817;44.694;37.774;2023-05-07T05:16:01;27.93;50.77
79018;DHT22;69817;44.694;37.774;2023-05-07T05:17:04;27.93;50.95
79018;DHT22;69817;44.694;37.774;2023-05-07T05:18:09;27.89;49.66
79018;DHT22;69817;44.694;37.774;2023-05-07T05:19:11;27.89;50.16
79018;DHT22;69817;44.694;37.774;2023-05-07T05:20:14;27.86;49.71
79018;DHT22;69817;44.694;37.774;2023-05-07T05:21:17;27.84;46.89
79018;DHT22;69817;44.694;37.774;2023-05-07T05:22:21;27.84;49.50
79018;DHT22;69817;44.694;37.774;2023-05-07T05:23:23;27.81;48.15
79018;DHT22;69817;44.694;37.774;2023-05-07T05:24:25;27.76;46.36
79018;DHT22;69817;44.694;37.774;2023-05-07T05:25:27;27.74;45.89
79018;DHT22;69817;44.694;37.774;2023-05-07T05:26:30;27.73;45.10
79018;DHT22;69817;44.694;37.774;2023-05-07T05:27:32;27.71;45.01
79018;DHT22;69817;44.694;37.774;2023-05-07T05:28:35;27.69;44.54
79018;DHT22;69817;44.694;37.774;2023-05-07T05:29:37;27.68;45.60
79018;DHT22;69817;44.694;37.774;2023-05-07T05:30:39;27.66;43.19
79018;DHT22;69817;44.694;37.774;2023-05-07T05:31:42;27.66;43.67
79018;DHT22;69817;44.694;37.774;2023-05-07T05:32:45;27.64;43.13
79018;DHT22;69817;44.694;37.774;2023-05-07T05:33:49;27.65;42.91
79018;DHT22;69817;44.694;37.774;2023-05-07T05:34:52;27.66;43.10
79018;DHT22;69817;44.694;37.774;2023-05-07T05:35:54;27.67;44.25
79018;DHT22;69817;44.694;37.774;2023-05-07T05:36:56;27.66;42.87
79018;DHT22;69817;44.694;37.774;2023-05-07T05:37:58;27.66;44.30
79018;DHT22;69817;44.694;37.774;2023-05-07T05:39:00;27.65;43.91
79018;DHT22;69817;44.694;37.774;2023-05-07T05:40:03;27.64;44.27
79018;DHT22;69817;44.694;37.774;2023-05-07T05:41:06;27.66;44.39
79018;DHT22;69817;44.694;37.774;2023-05-07T05:42:08;27.66;43.81
79018;DHT22;69817;44.694;37.774;2023-05-07T05:43:11;27.65;44.25
79018;DHT22;69817;44.694;37.774;2023-05-07T05:44:13;27.67;43.04
79018;DHT22;69817;44.694;37.774;2023-05-07T05:45:17;27.66;43.82
79018;DHT22;69817;44.694;37.774;2023-05-07T05:46:20;27.66;43.76
79018;DHT22;69817;44.694;37.774;2023-05-07T05:47:24;27.66;42.76
79018;DHT22;69817;44.694;37.774;2023-05-07T05:48:29;27.67;43.42
79018;DHT22;69817;44.694;37.774;2023-05-07T05:49:31;27.65;42.84
79018;DHT22;69817;44.694;37.774;2023-05-07T05:50:34;27.66;43.53
79018;DHT22;69817;44.694;37.774;2023-05-07T05:51:40;27.67;42.55
79018;DHT22;69817;44.694;37.774;2023-05-07T05:52:43;27.65;42.26
79018;DHT22;69817;44.694;37.774;2023-05-07T05:53:45;27.66;43.36
79018;DHT22;69817;44.694;37.774;2023-05-07T05:54:47;27.68;43.53
79018;DHT22;69817;44.694;37.774;2023-05-07T05:55:49;27.69;43.26
79018;DHT22;69817;44.694;37.774;2023-05-07T05:56:52;27.68;42.74
79018;DHT22;69817;44.694;37.774;2023-05-07T05:57:54;27.67;42.90
79018;DHT22;69817;44.694;37.774;2023-05-07T05:58:56;27.69;42.95
79018;DHT22;69817;44.694;37.774;2023-05-07T05:59:58;27.71;43.04
79018;DHT22;69817;44.694;37.774;2023-05-07T06:01:00;27.73;42.87
79018;DHT22;69817;44.694;37.774;2023-05-07T06:02:06;27.68;42.03
79018;DHT22;69817;44.694;37.774;2023-05-07T06:03:09;27.64;41.86
79018;DHT22;69817;44.694;37.774;2023-05-07T06:04:11;27.61;41.85
79018;DHT22;69817;44.694;37.774;2023-05-07T06:05:14;27.57;42.16
79018;DHT22;69817;44.694;37.774;2023-05-07T06:06:16;27.55;42.26
79018;DHT22;69817;44.694;37.774;2023-05-07T06:07:19;27.53;42.38
79018;DHT22;69817;44.694;37.774;2023-05-07T06:08:21;27.50;42.26
79018;DHT22;69817;44.694;37.774;2023-05-07T06:09:23;27.45;42.39
79018;DHT22;69817;44.694;37.774;2023-05-07T06:10:26;27.44;42.63
79018;DHT22;69817;44.694;37.774;2023-05-07T06:11:29;27.43;42.68
79018;DHT22;69817;44.694;37.774;2023-05-07T06:12:31;27.43;42.76
79018;DHT22;69817;44.694;37.774;2023-05-07T06:13:33;27.43;42.81
79018;DHT22;69817;44.694;37.774;2023-05-07T06:14:35;27.41;42.84
79018;DHT22;69817;44.694;37.774;2023-05-07T06:15:37;27.40;42.91
79018;DHT22;69817;44.694;37.774;2023-05-07T06:16:44;27.41;42.76
79018;DHT22;69817;44.694;37.774;2023-05-07T06:17:46;27.40;42.65
79018;DHT22;69817;44.694;37.774;2023-05-07T06:18:48;27.38;42.65
79018;DHT22;69817;44.694;37.774;2023-05-07T06:19:51;27.34;42.61
79018;DHT22;69817;44.694;37.774;2023-05-07T06:20:55;27.30;42.80
79018;DHT22;69817;44.694;37.774;2023-05-07T06:22:03;27.29;42.87
79018;DHT22;69817;44.694;37.774;2023-05-07T06:23:07;27.27;42.87
79018;DHT22;69817;44.694;37.774;2023-05-07T06:24:09;27.25;43.28
79018;DHT22;69817;44.694;37.774;2023-05-07T06:25:13;27.25;43.12
79018;DHT22;69817;44.694;37.774;2023-05-07T06:26:18;27.24;43.16
79018;DHT22;69817;44.694;37.774;2023-05-07T06:27:22;27.21;43.06
79018;DHT22;69817;44.694;37.774;2023-05-07T06:28:24;27.20;43.03
79018;DHT22;69817;44.694;37.774;2023-05-07T06:29:26;27.21;43.06
79018;DHT22;69817;44.694;37.774;2023-05-07T06:30:28;27.19;43.02
79018;DHT22;69817;44.694;37.774;2023-05-07T06:31:31;27.17;43.29
79018;DHT22;69817;44.694;37.774;2023-05-07T06:32:37;27.20;43.22